createdAt,value
2022-12-25T00:00:34.494Z,13.10
2022-12-25T00:03:36.816Z,14.50
2022-12-25T00:06:38.927Z,17.87
2022-12-25T00:09:41.059Z,17.27
2022-12-25T00:12:43.133Z,12.48
2022-12-25T00:15:45.109Z,15.30
2022-12-25T00:18:47.549Z,14.93
2022-12-25T00:21:49.587Z,18.13
2022-12-25T00:24:51.609Z,15.55
2022-12-25T00:27:53.591Z,16.40
2022-12-25T00:30:55.652Z,12.95
2022-12-25T00:33:58.030Z,14.95
2022-12-25T00:37:00.035Z,15.00
2022-12-25T00:40:02.017Z,13.95
2022-12-25T00:43:04.022Z,13.07
2022-12-25T00:46:06.696Z,12.38
2022-12-25T00:49:08.909Z,9.48
2022-12-25T00:52:10.933Z,11.52
2022-12-25T00:55:12.988Z,14.88
2022-12-25T00:58:14.987Z,14.37
2022-12-25T01:01:17.556Z,12.75
2022-12-25T01:04:19.699Z,12.23
2022-12-25T01:07:22.820Z,15.13
2022-12-25T01:10:24.955Z,14.20
2022-12-25T01:13:27.456Z,12.27
2022-12-25T01:16:29.757Z,11.13
2022-12-25T01:19:31.912Z,14.10
2022-12-25T01:22:34.005Z,12.45
2022-12-25T01:25:36.052Z,10.13
2022-12-25T01:28:38.451Z,12.90
2022-12-25T01:31:41.078Z,13.00
2022-12-25T01:34:43.091Z,14.00
2022-12-25T01:37:45.040Z,12.80
2022-12-25T01:40:47.060Z,15.77
2022-12-25T01:43:59.770Z,12.98
2022-12-25T01:47:05.200Z,14.50
2022-12-25T01:50:07.597Z,12.02
2022-12-25T01:53:09.780Z,10.68
2022-12-25T01:56:11.948Z,11.80
2022-12-25T01:59:16.258Z,13.23
2022-12-25T02:02:18.458Z,16.42
2022-12-25T02:05:31.861Z,11.88
2022-12-25T02:08:34.191Z,14.00
2022-12-25T02:11:54.647Z,8.80
2022-12-25T02:15:04.985Z,7.63
2022-12-25T02:18:16.729Z,11.95
2022-12-25T02:21:26.100Z,8.88
2022-12-25T02:24:57.630Z,9.55
2022-12-25T02:28:05.850Z,15.63
2022-12-25T02:31:10.956Z,11.37
2022-12-25T02:34:17.688Z,10.43
2022-12-25T02:37:23.549Z,10.25
2022-12-25T02:40:29.558Z,9.53
2022-12-25T02:43:52.093Z,10.95
2022-12-25T02:47:13.227Z,9.20
2022-12-25T02:50:34.454Z,12.27
2022-12-25T02:53:58.035Z,10.85
2022-12-25T02:57:20.839Z,13.52
2022-12-25T03:00:41.639Z,8.98
2022-12-25T03:04:03.262Z,8.70
2022-12-25T03:07:05.264Z,10.57
2022-12-25T03:10:27.479Z,8.48
2022-12-25T03:13:33.081Z,7.70
2022-12-25T03:16:54.016Z,9.30
2022-12-25T03:20:14.484Z,10.50
2022-12-25T03:23:37.790Z,13.10
2022-12-25T03:26:55.319Z,10.73
2022-12-25T03:30:15.807Z,11.27
2022-12-25T03:33:45.823Z,13.18
2022-12-25T03:37:10.762Z,9.23
2022-12-25T03:40:50.388Z,14.07
2022-12-25T03:44:14.804Z,14.73
2022-12-25T03:47:45.746Z,13.50
2022-12-25T03:51:27.219Z,11.38
2022-12-25T03:54:49.648Z,10.57
2022-12-25T03:58:10.010Z,9.00
2022-12-25T04:01:31.068Z,10.20
2022-12-25T04:04:51.508Z,11.30
2022-12-25T04:08:12.039Z,11.50
2022-12-25T04:11:32.425Z,11.73
2022-12-25T04:14:52.821Z,8.25
2022-12-25T04:18:13.338Z,10.98
2022-12-25T04:21:33.856Z,8.57
2022-12-25T04:24:54.188Z,7.78
2022-12-25T04:28:19.335Z,14.77
2022-12-25T04:31:40.322Z,14.25
2022-12-25T04:35:00.798Z,10.00
2022-12-25T04:38:02.809Z,9.85
2022-12-25T04:41:05.134Z,10.13
2022-12-25T04:44:07.187Z,11.43
2022-12-25T04:47:11.455Z,11.35
2022-12-25T04:50:13.901Z,13.02
2022-12-25T04:53:16.103Z,10.03
2022-12-25T04:56:18.413Z,10.27
2022-12-25T04:59:20.429Z,15.52
2022-12-25T05:02:22.528Z,12.77
2022-12-25T05:05:24.802Z,17.17
2022-12-25T05:08:28.175Z,11.43
2022-12-25T05:11:30.224Z,14.35
2022-12-25T05:14:32.191Z,10.10
2022-12-25T05:17:34.241Z,7.70
2022-12-25T05:20:40.317Z,12.00
2022-12-25T05:23:51.426Z,9.10
2022-12-25T05:26:53.590Z,10.95
2022-12-25T05:29:55.690Z,10.93
2022-12-25T05:32:57.676Z,7.38
2022-12-25T05:36:03.610Z,9.18
2022-12-25T05:39:05.607Z,7.57
2022-12-25T05:42:07.584Z,12.50
2022-12-25T05:45:10.311Z,10.73
2022-12-25T05:48:12.341Z,9.73
2022-12-25T05:51:14.768Z,7.10
2022-12-25T05:54:17.039Z,9.40
2022-12-25T05:57:19.049Z,10.52
2022-12-25T06:00:21.115Z,11.18
2022-12-25T06:03:23.807Z,7.03
2022-12-25T06:06:26.010Z,13.55
2022-12-25T06:09:28.100Z,7.47
2022-12-25T06:12:30.114Z,11.05
2022-12-25T06:15:32.510Z,11.77
2022-12-25T06:18:35.588Z,9.23
2022-12-25T06:21:37.725Z,10.82
2022-12-25T06:24:40.788Z,12.40
2022-12-25T06:27:42.932Z,13.70
2022-12-25T06:30:44.910Z,14.35
2022-12-25T06:33:47.299Z,10.60
2022-12-25T06:36:49.301Z,11.55
2022-12-25T06:39:51.281Z,10.50
2022-12-25T06:42:53.380Z,10.77
2022-12-25T06:45:55.575Z,13.90
2022-12-25T06:48:58.065Z,11.77
2022-12-25T06:52:00.079Z,12.88
2022-12-25T06:55:02.680Z,13.13
2022-12-25T06:58:04.692Z,12.55
2022-12-25T07:01:15.260Z,14.10
2022-12-25T07:04:21.468Z,13.80
2022-12-25T07:07:23.747Z,17.13
2022-12-25T07:10:25.751Z,13.40
2022-12-25T07:13:27.719Z,11.90
2022-12-25T07:16:29.811Z,10.47
2022-12-25T07:19:31.843Z,10.93
2022-12-25T07:22:33.809Z,11.10
2022-12-25T07:25:37.537Z,12.90
2022-12-25T07:28:39.787Z,14.05
2022-12-25T07:31:41.876Z,13.15
2022-12-25T07:34:43.911Z,17.17
2022-12-25T07:37:45.938Z,16.90
2022-12-25T07:40:48.215Z,16.75
2022-12-25T07:43:51.609Z,18.10
2022-12-25T07:46:53.609Z,14.30
2022-12-25T07:49:55.641Z,19.05
2022-12-25T07:52:57.704Z,15.50
2022-12-25T07:56:03.723Z,16.77
2022-12-25T07:59:05.722Z,20.08
2022-12-25T08:02:09.248Z,19.55
2022-12-25T08:05:11.393Z,23.40
2022-12-25T08:08:13.456Z,19.27
2022-12-25T08:11:15.502Z,17.60
2022-12-25T08:14:17.510Z,18.30
2022-12-25T08:17:19.587Z,14.60
2022-12-25T08:20:21.574Z,14.77
2022-12-25T08:23:23.608Z,13.77
2022-12-25T08:26:25.556Z,14.73
2022-12-25T08:29:29.218Z,14.70
2022-12-25T08:32:34.556Z,17.02
2022-12-25T08:35:36.954Z,19.20
2022-12-25T08:38:39.810Z,16.93
2022-12-25T08:41:41.897Z,16.20
2022-12-25T08:44:43.917Z,15.45
2022-12-25T08:47:45.911Z,17.80
2022-12-25T08:50:51.865Z,18.75
2022-12-25T08:53:57.756Z,18.93
2022-12-25T08:57:03.004Z,22.75
2022-12-25T09:00:05.530Z,20.70
2022-12-25T09:03:07.698Z,14.98
2022-12-25T09:06:11.473Z,15.45
2022-12-25T09:09:13.523Z,11.50
2022-12-25T09:12:15.562Z,15.95
2022-12-25T09:15:17.644Z,15.65
2022-12-25T09:18:19.692Z,11.18
2022-12-25T09:21:21.744Z,14.00
2022-12-25T09:24:23.843Z,11.83
2022-12-25T09:27:25.860Z,10.52
2022-12-25T09:30:27.915Z,9.35
2022-12-25T09:33:30.213Z,11.23
2022-12-25T09:36:32.194Z,12.52
2022-12-25T09:39:34.289Z,10.13
2022-12-25T09:42:36.326Z,8.30
2022-12-25T09:45:39.130Z,12.45
2022-12-25T09:48:43.716Z,11.13
2022-12-25T09:51:48.206Z,9.13
2022-12-25T09:54:54.780Z,10.50
2022-12-25T09:57:58.096Z,9.57
2022-12-25T10:01:03.984Z,10.30
2022-12-25T10:04:05.981Z,10.02
2022-12-25T10:07:21.625Z,9.55
2022-12-25T10:10:29.040Z,11.37
2022-12-25T10:13:50.039Z,8.13
2022-12-25T10:16:52.009Z,10.85
2022-12-25T10:20:12.759Z,11.98
2022-12-25T10:23:17.805Z,9.30
2022-12-25T10:26:21.175Z,9.13
2022-12-25T10:29:23.239Z,11.32
2022-12-25T10:32:25.326Z,11.20
2022-12-25T10:35:28.739Z,10.18
2022-12-25T10:38:30.756Z,6.63
2022-12-25T10:41:38.742Z,8.20
2022-12-25T10:44:40.731Z,9.07
2022-12-25T10:47:42.980Z,10.52
2022-12-25T10:50:45.044Z,9.43
2022-12-25T10:53:47.063Z,8.98
2022-12-25T10:56:53.117Z,9.33
2022-12-25T10:59:56.560Z,8.82
2022-12-25T11:02:59.278Z,7.45
2022-12-25T11:06:02.963Z,8.50
2022-12-25T11:09:05.080Z,11.43
2022-12-25T11:12:07.232Z,11.57
2022-12-25T11:15:28.099Z,15.25
2022-12-25T11:18:33.614Z,7.03
2022-12-25T11:21:37.148Z,11.38
2022-12-25T11:24:39.136Z,9.50
2022-12-25T11:27:43.209Z,10.50
2022-12-25T11:30:47.369Z,9.50
2022-12-25T11:33:57.561Z,19.95
2022-12-25T11:37:00.880Z,9.95
2022-12-25T11:40:03.297Z,11.55
2022-12-25T11:43:12.494Z,9.47
2022-12-25T11:46:24.318Z,10.82
2022-12-25T11:49:26.419Z,9.82
2022-12-25T11:52:32.165Z,10.18
2022-12-25T11:55:41.615Z,7.68
2022-12-25T11:58:44.958Z,13.53
2022-12-25T12:01:49.023Z,10.75
2022-12-25T12:05:02.267Z,11.27
2022-12-25T12:08:05.330Z,9.00
2022-12-25T12:11:16.415Z,8.82
2022-12-25T12:14:21.178Z,12.50
2022-12-25T12:17:23.238Z,10.27
2022-12-25T12:20:28.094Z,17.15
2022-12-25T12:23:50.413Z,12.20
2022-12-25T12:27:06.415Z,9.50
2022-12-25T12:30:22.286Z,15.00
2022-12-25T12:33:25.898Z,12.32
2022-12-25T12:36:36.175Z,14.27
2022-12-25T12:39:39.524Z,15.25
2022-12-25T12:42:48.532Z,13.18
2022-12-25T12:45:55.386Z,14.40
2022-12-25T12:49:09.474Z,15.25
2022-12-25T12:52:20.386Z,21.17
2022-12-25T12:55:29.414Z,15.32
2022-12-25T12:58:33.693Z,11.85
2022-12-25T13:01:44.127Z,11.43
2022-12-25T13:05:06.480Z,13.25
2022-12-25T13:08:27.046Z,14.15
2022-12-25T13:11:30.293Z,14.25
2022-12-25T13:14:32.473Z,12.38
2022-12-25T13:17:35.096Z,12.03
2022-12-25T13:20:39.927Z,10.48
2022-12-25T13:23:41.983Z,13.18
2022-12-25T13:26:43.997Z,10.20
2022-12-25T13:29:46.410Z,11.20
2022-12-25T13:32:49.345Z,15.93
2022-12-25T13:35:51.612Z,21.92
2022-12-25T13:38:55.406Z,18.92
2022-12-25T13:42:06.241Z,18.95
2022-12-25T13:45:14.069Z,21.50
2022-12-25T13:48:16.229Z,23.87
2022-12-25T13:51:20.529Z,24.08
2022-12-25T13:54:24.284Z,17.90
2022-12-25T13:57:31.382Z,16.98
2022-12-25T14:00:36.538Z,21.20
2022-12-25T14:03:46.219Z,28.67
2022-12-25T14:06:48.989Z,19.75
2022-12-25T14:09:54.143Z,21.10
2022-12-25T14:12:56.839Z,24.98
2022-12-25T14:15:59.363Z,27.50
2022-12-25T14:19:02.443Z,63.22
2022-12-25T14:22:24.730Z,36.90
2022-12-25T14:25:31.384Z,31.80
2022-12-25T14:28:34.591Z,31.50
2022-12-25T14:31:38.589Z,32.90
2022-12-25T14:34:42.023Z,39.35
2022-12-25T14:37:44.119Z,48.90
2022-12-25T14:40:46.250Z,41.70
2022-12-25T14:43:52.037Z,43.72
2022-12-25T14:47:03.514Z,37.95
2022-12-25T14:50:36.555Z,46.70
2022-12-25T14:53:47.211Z,84.93
2022-12-25T14:56:50.314Z,90.13
2022-12-25T14:59:56.127Z,73.75
2022-12-25T15:02:58.797Z,69.60
2022-12-25T15:06:02.212Z,88.53
2022-12-25T15:09:09.183Z,80.38
2022-12-25T15:12:11.699Z,93.43
2022-12-25T15:15:13.713Z,74.13
2022-12-25T15:18:15.923Z,69.43
2022-12-25T15:21:29.279Z,77.63
2022-12-25T15:24:31.357Z,69.75
2022-12-25T15:27:33.308Z,83.57
2022-12-25T15:30:38.052Z,48.30
2022-12-25T15:33:44.147Z,35.58
2022-12-25T15:36:49.691Z,35.95
2022-12-25T15:39:51.761Z,37.93
2022-12-25T15:42:56.631Z,32.47
2022-12-25T15:45:58.890Z,31.50
2022-12-25T15:49:00.940Z,44.53
2022-12-25T15:52:03.921Z,43.30
2022-12-25T15:55:06.786Z,57.00
2022-12-25T15:58:12.396Z,51.88
2022-12-25T16:01:18.384Z,67.53
2022-12-25T16:04:21.527Z,91.30
2022-12-25T16:07:25.048Z,138.27
2022-12-25T16:10:27.191Z,65.85
2022-12-25T16:13:29.268Z,47.08
2022-12-25T16:16:31.367Z,48.08
2022-12-25T16:19:33.405Z,66.75
2022-12-25T16:22:40.129Z,61.10
2022-12-25T16:25:42.211Z,72.07
2022-12-25T16:28:44.248Z,76.13
2022-12-25T16:31:46.418Z,71.38
2022-12-25T16:34:48.635Z,65.83
2022-12-25T16:37:50.660Z,60.55
2022-12-25T16:40:55.561Z,114.72
2022-12-25T16:43:57.564Z,99.70
2022-12-25T16:46:59.624Z,135.50
2022-12-25T16:50:03.660Z,122.10
2022-12-25T16:53:05.763Z,109.97
2022-12-25T16:56:09.085Z,152.65
2022-12-25T16:59:11.308Z,383.88
2022-12-25T17:02:17.559Z,391.13
2022-12-25T17:05:19.745Z,264.17
2022-12-25T17:08:21.977Z,122.43
2022-12-25T17:11:27.448Z,128.55
2022-12-25T17:14:29.505Z,121.03
2022-12-25T17:17:31.533Z,90.93
2022-12-25T17:20:33.537Z,93.30
2022-12-25T17:23:36.998Z,86.15
2022-12-25T17:26:40.825Z,68.07
2022-12-25T17:29:44.055Z,47.42
2022-12-25T17:32:46.125Z,47.55
2022-12-25T17:35:48.091Z,83.03
2022-12-25T17:38:50.314Z,66.22
2022-12-25T17:41:52.589Z,93.47
2022-12-25T17:44:54.818Z,87.17
2022-12-25T17:47:57.618Z,70.63
2022-12-25T17:51:03.552Z,53.25
2022-12-25T17:54:05.611Z,41.30
2022-12-25T17:57:07.630Z,37.85
2022-12-25T18:00:09.829Z,37.30
2022-12-25T18:03:12.339Z,77.40
2022-12-25T18:06:16.261Z,50.23
2022-12-25T18:09:19.858Z,40.53
2022-12-25T18:12:22.526Z,43.75
2022-12-25T18:15:24.563Z,122.33
2022-12-25T18:18:26.627Z,136.15
2022-12-25T18:21:29.229Z,79.32
2022-12-25T18:24:31.244Z,47.67
2022-12-25T18:27:33.291Z,31.02
2022-12-25T18:30:38.590Z,32.60
2022-12-25T18:33:40.916Z,29.23
2022-12-25T18:36:44.832Z,55.20
2022-12-25T18:39:47.007Z,47.35
2022-12-25T18:42:53.742Z,49.53
2022-12-25T18:45:59.899Z,56.70
2022-12-25T18:49:02.105Z,42.10
2022-12-25T18:52:48.408Z,58.03
2022-12-25T18:55:27.807Z,39.90
2022-12-25T18:58:29.867Z,43.37
2022-12-25T19:01:32.042Z,51.67
2022-12-25T19:04:34.163Z,44.30
2022-12-25T19:07:36.696Z,35.50
2022-12-25T19:10:39.677Z,35.15
2022-12-25T19:13:42.321Z,36.13
2022-12-25T19:16:44.633Z,43.60
2022-12-25T19:19:46.861Z,48.17
2022-12-25T19:22:49.040Z,43.72
2022-12-25T19:25:51.210Z,45.13
2022-12-25T19:28:53.326Z,39.57
2022-12-25T19:31:55.459Z,59.05
2022-12-25T19:34:57.566Z,77.22
2022-12-25T19:37:59.525Z,65.63
2022-12-25T19:41:08.362Z,54.28
2022-12-25T19:44:10.839Z,54.33
2022-12-25T19:47:12.933Z,47.97
2022-12-25T19:50:15.064Z,42.87
2022-12-25T19:53:18.520Z,42.30
2022-12-25T19:56:20.514Z,38.95
2022-12-25T19:59:22.551Z,36.43
2022-12-25T20:02:24.665Z,69.88
2022-12-25T20:05:27.971Z,99.72
2022-12-25T20:08:30.039Z,55.88
2022-12-25T20:11:32.641Z,45.83
2022-12-25T20:14:34.694Z,38.78
2022-12-25T20:17:36.844Z,60.88
2022-12-25T20:20:38.998Z,78.23
2022-12-25T20:23:41.696Z,101.90
2022-12-25T20:26:47.678Z,128.73
2022-12-25T20:29:50.300Z,117.15
2022-12-25T20:32:52.313Z,106.25
2022-12-25T20:35:55.170Z,74.97
2022-12-25T20:38:57.421Z,52.83
2022-12-25T20:41:59.435Z,47.87
2022-12-25T20:45:02.217Z,48.05
2022-12-25T20:48:05.194Z,38.17
2022-12-25T20:51:08.283Z,36.07
2022-12-25T20:54:10.416Z,37.03
2022-12-25T20:57:12.428Z,35.22
2022-12-25T21:00:14.658Z,30.92
2022-12-25T21:03:16.772Z,32.00
2022-12-25T21:06:18.998Z,30.75
2022-12-25T21:09:22.360Z,35.38
2022-12-25T21:12:24.380Z,46.83
2022-12-25T21:15:26.414Z,37.92
2022-12-25T21:18:28.438Z,49.95
2022-12-25T21:21:31.015Z,59.43
2022-12-25T21:24:33.000Z,42.97
2022-12-25T21:27:35.081Z,51.30
2022-12-25T21:30:37.204Z,47.60
2022-12-25T21:33:51.467Z,44.40
2022-12-25T21:36:53.490Z,40.90
2022-12-25T21:39:55.614Z,32.90
2022-12-25T21:42:57.795Z,33.53
2022-12-25T21:46:07.224Z,32.03
2022-12-25T21:49:09.614Z,30.42
2022-12-25T21:52:12.251Z,38.00
2022-12-25T21:55:14.346Z,32.17
2022-12-25T21:58:16.354Z,31.67
2022-12-25T22:01:18.475Z,28.63
2022-12-25T22:04:22.028Z,27.60
2022-12-25T22:07:24.101Z,25.58
2022-12-25T22:10:26.189Z,26.13
2022-12-25T22:13:54.368Z,29.97
2022-12-25T22:17:15.398Z,27.17
2022-12-25T22:20:19.082Z,25.67
2022-12-25T22:23:21.862Z,27.77
2022-12-25T22:26:23.870Z,32.25
2022-12-25T22:29:25.958Z,30.40
2022-12-25T22:32:28.527Z,28.50
2022-12-25T22:35:30.543Z,28.65
2022-12-25T22:38:32.736Z,31.75
2022-12-25T22:41:34.820Z,29.88
2022-12-25T22:44:37.292Z,29.80
2022-12-25T22:47:39.508Z,32.00
2022-12-25T22:50:41.926Z,30.52
2022-12-25T22:53:43.896Z,31.07
2022-12-25T22:56:47.118Z,32.15
2022-12-25T22:59:51.053Z,30.40
2022-12-25T23:02:53.439Z,32.75
2022-12-25T23:05:56.279Z,27.77
2022-12-25T23:08:58.346Z,36.80
2022-12-25T23:12:00.370Z,29.90
2022-12-25T23:15:02.489Z,27.10
2022-12-25T23:18:23.136Z,27.23
2022-12-25T23:21:44.039Z,30.05
2022-12-25T23:25:04.511Z,28.08
2022-12-25T23:28:06.515Z,31.05
2022-12-25T23:31:09.519Z,31.88
2022-12-25T23:34:11.710Z,34.17
2022-12-25T23:37:13.804Z,34.33
2022-12-25T23:40:15.885Z,36.58
2022-12-25T23:43:17.881Z,39.38
2022-12-25T23:46:20.056Z,39.73
2022-12-25T23:49:23.179Z,37.97
2022-12-25T23:52:25.163Z,40.42
2022-12-25T23:55:27.217Z,38.85
2022-12-25T23:58:29.349Z,32.47
